sensor_id;sensor_type;location;lat;lon;timestamp;P1;durP1;ratioP1;P2;durP2;ratioP2
23388;SDS011;11867;51.198;11.966;2024-01-11T00:00:37;95.82;;;42.53;;
23388;SDS011;11867;51.198;11.966;2024-01-11T00:02:01;92.25;;;41.75;;
23388;SDS011;11867;51.198;11.966;2024-01-11T00:03:23;99.55;;;42.80;;
23388;SDS011;11867;51.198;11.966;2024-01-11T00:04:46;95.00;;;42.63;;
23388;SDS011;11867;51.198;11.966;2024-01-11T00:06:08;99.45;;;44.42;;
23388;SDS011;11867;51.198;11.966;2024-01-11T00:07:33;95.20;;;43.05;;
23388;SDS011;11867;51.198;11.966;2024-01-11T00:08:55;94.85;;;42.67;;
23388;SDS011;11867;51.198;11.966;2024-01-11T00:19:27;85.57;;;43.08;;
23388;SDS011;11867;51.198;11.966;2024-01-11T00:20:51;102.50;;;48.83;;
23388;SDS011;11867;51.198;11.966;2024-01-11T00:22:13;108.22;;;48.80;;
23388;SDS011;11867;51.198;11.966;2024-01-11T00:23:36;102.53;;;45.65;;
23388;SDS011;11867;51.198;11.966;2024-01-11T00:24:58;102.05;;;46.83;;
23388;SDS011;11867;51.198;11.966;2024-01-11T00:26:22;103.72;;;45.35;;
23388;SDS011;11867;51.198;11.966;2024-01-11T00:27:44;97.13;;;46.58;;
23388;SDS011;11867;51.198;11.966;2024-01-11T00:29:07;102.05;;;44.67;;
23388;SDS011;11867;51.198;11.966;2024-01-11T00:30:29;98.80;;;44.63;;
23388;SDS011;11867;51.198;11.966;2024-01-11T00:31:52;103.40;;;44.45;;
23388;SDS011;11867;51.198;11.966;2024-01-11T00:33:14;93.63;;;43.20;;
23388;SDS011;11867;51.198;11.966;2024-01-11T00:34:38;107.30;;;47.03;;
23388;SDS011;11867;51.198;11.966;2024-01-11T00:36:01;105.10;;;45.60;;
23388;SDS011;11867;51.198;11.966;2024-01-11T00:37:24;108.82;;;46.30;;
23388;SDS011;11867;51.198;11.966;2024-01-11T00:38:46;104.93;;;46.83;;
23388;SDS011;11867;51.198;11.966;2024-01-11T00:40:10;103.78;;;44.95;;
23388;SDS011;11867;51.198;11.966;2024-01-11T00:41:32;99.50;;;44.85;;
23388;SDS011;11867;51.198;11.966;2024-01-11T00:42:55;112.63;;;46.97;;
23388;SDS011;11867;51.198;11.966;2024-01-11T00:44:17;108.97;;;46.00;;
23388;SDS011;11867;51.198;11.966;2024-01-11T00:45:41;105.60;;;44.85;;
23388;SDS011;11867;51.198;11.966;2024-01-11T00:47:03;110.13;;;45.55;;
23388;SDS011;11867;51.198;11.966;2024-01-11T00:48:27;108.05;;;45.28;;
23388;SDS011;11867;51.198;11.966;2024-01-11T00:49:51;99.13;;;44.63;;
23388;SDS011;11867;51.198;11.966;2024-01-11T00:51:14;101.97;;;44.80;;
23388;SDS011;11867;51.198;11.966;2024-01-11T00:52:37;100.07;;;44.45;;
23388;SDS011;11867;51.198;11.966;2024-01-11T00:54:00;98.88;;;44.50;;
23388;SDS011;11867;51.198;11.966;2024-01-11T00:55:23;101.22;;;43.08;;
23388;SDS011;11867;51.198;11.966;2024-01-11T00:56:47;99.43;;;46.08;;
23388;SDS011;11867;51.198;11.966;2024-01-11T00:58:10;96.30;;;43.50;;
23388;SDS011;11867;51.198;11.966;2024-01-11T00:59:32;100.97;;;46.08;;
23388;SDS011;11867;51.198;11.966;2024-01-11T01:00:56;100.75;;;44.22;;
23388;SDS011;11867;51.198;11.966;2024-01-11T01:02:19;94.80;;;44.50;;
23388;SDS011;11867;51.198;11.966;2024-01-11T01:03:42;97.20;;;43.70;;
23388;SDS011;11867;51.198;11.966;2024-01-11T01:05:06;92.35;;;41.95;;
23388;SDS011;11867;51.198;11.966;2024-01-11T01:06:30;92.82;;;42.53;;
23388;SDS011;11867;51.198;11.966;2024-01-11T01:07:52;101.25;;;43.70;;
23388;SDS011;11867;51.198;11.966;2024-01-11T01:09:15;102.95;;;43.58;;
23388;SDS011;11867;51.198;11.966;2024-01-11T01:10:37;97.90;;;43.00;;
23388;SDS011;11867;51.198;11.966;2024-01-11T01:12:00;98.30;;;43.85;;
23388;SDS011;11867;51.198;11.966;2024-01-11T01:13:23;96.15;;;43.13;;
23388;SDS011;11867;51.198;11.966;2024-01-11T01:14:46;94.65;;;43.92;;
23388;SDS011;11867;51.198;11.966;2024-01-11T01:16:08;92.43;;;41.92;;
23388;SDS011;11867;51.198;11.966;2024-01-11T01:17:31;98.57;;;43.92;;
23388;SDS011;11867;51.198;11.966;2024-01-11T01:18:53;98.47;;;44.05;;
23388;SDS011;11867;51.198;11.966;2024-01-11T01:20:17;90.47;;;42.70;;
23388;SDS011;11867;51.198;11.966;2024-01-11T01:21:39;97.78;;;44.35;;
23388;SDS011;11867;51.198;11.966;2024-01-11T01:23:03;95.28;;;43.67;;
23388;SDS011;11867;51.198;11.966;2024-01-11T01:24:25;97.32;;;42.95;;
23388;SDS011;11867;51.198;11.966;2024-01-11T01:25:48;94.70;;;43.47;;
23388;SDS011;11867;51.198;11.966;2024-01-11T01:27:10;99.80;;;42.60;;
23388;SDS011;11867;51.198;11.966;2024-01-11T01:28:34;100.30;;;44.58;;
23388;SDS011;11867;51.198;11.966;2024-01-11T01:29:56;98.57;;;44.67;;
23388;SDS011;11867;51.198;11.966;2024-01-11T01:31:19;93.20;;;43.78;;
23388;SDS011;11867;51.198;11.966;2024-01-11T01:32:41;98.88;;;43.15;;
23388;SDS011;11867;51.198;11.966;2024-01-11T01:34:06;87.63;;;42.58;;
23388;SDS011;11867;51.198;11.966;2024-01-11T01:35:30;100.15;;;45.17;;
23388;SDS011;11867;51.198;11.966;2024-01-11T01:36:53;100.28;;;44.75;;
23388;SDS011;11867;51.198;11.966;2024-01-11T01:38:15;93.82;;;43.10;;
23388;SDS011;11867;51.198;11.966;2024-01-11T01:39:39;98.72;;;43.35;;
23388;SDS011;11867;51.198;11.966;2024-01-11T01:41:01;94.45;;;43.35;;
23388;SDS011;11867;51.198;11.966;2024-01-11T01:42:24;95.88;;;42.92;;
23388;SDS011;11867;51.198;11.966;2024-01-11T01:43:46;93.95;;;42.58;;
23388;SDS011;11867;51.198;11.966;2024-01-11T01:45:09;97.72;;;44.25;;
23388;SDS011;11867;51.198;11.966;2024-01-11T01:46:31;95.70;;;44.65;;
23388;SDS011;11867;51.198;11.966;2024-01-11T01:47:56;99.75;;;43.15;;
23388;SDS011;11867;51.198;11.966;2024-01-11T01:49:18;92.80;;;41.33;;
23388;SDS011;11867;51.198;11.966;2024-01-11T01:50:46;94.85;;;43.42;;
23388;SDS011;11867;51.198;11.966;2024-01-11T01:52:12;86.45;;;42.13;;
23388;SDS011;11867;51.198;11.966;2024-01-11T01:53:36;98.90;;;43.65;;
23388;SDS011;11867;51.198;11.966;2024-01-11T01:54:59;91.75;;;42.30;;
23388;SDS011;11867;51.198;11.966;2024-01-11T01:56:23;102.20;;;43.88;;
23388;SDS011;11867;51.198;11.966;2024-01-11T01:57:46;96.60;;;43.63;;
23388;SDS011;11867;51.198;11.966;2024-01-11T01:59:11;89.90;;;40.63;;
23388;SDS011;11867;51.198;11.966;2024-01-11T02:00:35;95.47;;;42.92;;
23388;SDS011;11867;51.198;11.966;2024-01-11T02:01:59;95.80;;;43.33;;
23388;SDS011;11867;51.198;11.966;2024-01-11T02:03:21;95.80;;;42.38;;
23388;SDS011;11867;51.198;11.966;2024-01-11T02:04:47;96.57;;;44.08;;
23388;SDS011;11867;51.198;11.966;2024-01-11T02:06:11;94.20;;;41.97;;
23388;SDS011;11867;51.198;11.966;2024-01-11T02:07:34;104.78;;;43.28;;
23388;SDS011;11867;51.198;11.966;2024-01-11T02:08:57;96.38;;;44.03;;
23388;SDS011;11867;51.198;11.966;2024-01-11T02:10:25;93.63;;;42.45;;
23388;SDS011;11867;51.198;11.966;2024-01-11T02:11:47;99.88;;;42.13;;
23388;SDS011;11867;51.198;11.966;2024-01-11T02:13:10;98.13;;;43.53;;
23388;SDS011;11867;51.198;11.966;2024-01-11T02:14:33;90.88;;;43.63;;
23388;SDS011;11867;51.198;11.966;2024-01-11T02:15:56;97.13;;;42.58;;
23388;SDS011;11867;51.198;11.966;2024-01-11T02:17:19;95.38;;;42.88;;
23388;SDS011;11867;51.198;11.966;2024-01-11T02:18:43;96.00;;;44.88;;
23388;SDS011;11867;51.198;11.966;2024-01-11T02:20:05;94.18;;;43.42;;
23388;SDS011;11867;51.198;11.966;2024-01-11T02:21:31;94.13;;;43.30;;
23388;SDS011;11867;51.198;11.966;2024-01-11T02:22:56;104.72;;;43.92;;
23388;SDS011;11867;51.198;11.966;2024-01-11T02:24:32;100.95;;;44.53;;
23388;SDS011;11867;51.198;11.966;2024-01-11T02:25:55;90.40;;;42.28;;
23388;SDS011;11867;51.198;11.966;2024-01-11T02:27:18;94.88;;;41.72;;
23388;SDS011;11867;51.198;11.966;2024-01-11T02:28:43;93.22;;;43.63;;
23388;SDS011;11867;51.198;11.966;2024-01-11T02:30:06;92.65;;;41.78;;
23388;SDS011;11867;51.198;11.966;2024-01-11T02:31:29;99.72;;;43.80;;
23388;SDS011;11867;51.198;11.966;2024-01-11T02:32:53;95.00;;;42.38;;
23388;SDS011;11867;51.198;11.966;2024-01-11T02:34:17;95.55;;;44.22;;
23388;SDS011;11867;51.198;11.966;2024-01-11T02:35:40;98.35;;;44.25;;
23388;SDS011;11867;51.198;11.966;2024-01-11T02:37:08;96.15;;;43.65;;
23388;SDS011;11867;51.198;11.966;2024-01-11T02:38:31;100.63;;;44.13;;
23388;SDS011;11867;51.198;11.966;2024-01-11T02:39:56;96.25;;;43.17;;
23388;SDS011;11867;51.198;11.966;2024-01-11T02:41:19;97.00;;;44.38;;
23388;SDS011;11867;51.198;11.966;2024-01-11T02:42:42;96.72;;;43.28;;
23388;SDS011;11867;51.198;11.966;2024-01-11T02:44:05;98.90;;;41.75;;
23388;SDS011;11867;51.198;11.966;2024-01-11T02:45:27;92.38;;;42.67;;
23388;SDS011;11867;51.198;11.966;2024-01-11T02:46:50;98.32;;;43.80;;
23388;SDS011;11867;51.198;11.966;2024-01-11T02:48:13;99.25;;;43.65;;
23388;SDS011;11867;51.198;11.966;2024-01-11T02:49:35;98.60;;;44.05;;
23388;SDS011;11867;51.198;11.966;2024-01-11T02:50:59;95.30;;;43.22;;
23388;SDS011;11867;51.198;11.966;2024-01-11T02:52:22;94.63;;;41.38;;
23388;SDS011;11867;51.198;11.966;2024-01-11T02:53:45;95.68;;;43.90;;
23388;SDS011;11867;51.198;11.966;2024-01-11T02:55:09;94.35;;;43.38;;
23388;SDS011;11867;51.198;11.966;2024-01-11T02:56:32;92.68;;;43.08;;
23388;SDS011;11867;51.198;11.966;2024-01-11T02:57:54;94.50;;;42.55;;
23388;SDS011;11867;51.198;11.966;2024-01-11T02:59:18;104.63;;;44.63;;
23388;SDS011;11867;51.198;11.966;2024-01-11T03:00:40;93.25;;;43.10;;
23388;SDS011;11867;51.198;11.966;2024-01-11T03:02:03;93.78;;;41.97;;
23388;SDS011;11867;51.198;11.966;2024-01-11T03:03:26;97.30;;;43.85;;
23388;SDS011;11867;51.198;11.966;2024-01-11T03:04:49;99.78;;;43.17;;
23388;SDS011;11867;51.198;11.966;2024-01-11T03:06:11;93.65;;;41.65;;
23388;SDS011;11867;51.198;11.966;2024-01-11T03:07:35;87.65;;;42.17;;
23388;SDS011;11867;51.198;11.966;2024-01-11T03:08:57;94.28;;;42.83;;
23388;SDS011;11867;51.198;11.966;2024-01-11T03:10:22;93.65;;;43.28;;
23388;SDS011;11867;51.198;11.966;2024-01-11T03:11:44;97.28;;;42.83;;
23388;SDS011;11867;51.198;11.966;2024-01-11T03:13:07;95.22;;;43.38;;
23388;SDS011;11867;51.198;11.966;2024-01-11T03:14:29;91.90;;;43.17;;
23388;SDS011;11867;51.198;11.966;2024-01-11T03:15:52;99.10;;;42.88;;
23388;SDS011;11867;51.198;11.966;2024-01-11T03:17:14;94.63;;;44.13;;
23388;SDS011;11867;51.198;11.966;2024-01-11T03:18:37;90.03;;;42.92;;
23388;SDS011;11867;51.198;11.966;2024-01-11T03:20:00;94.97;;;41.90;;
23388;SDS011;11867;51.198;11.966;2024-01-11T03:21:25;97.10;;;42.15;;
23388;SDS011;11867;51.198;11.966;2024-01-11T03:22:47;89.18;;;42.75;;
23388;SDS011;11867;51.198;11.966;2024-01-11T03:24:10;96.15;;;44.50;;
23388;SDS011;11867;51.198;11.966;2024-01-11T03:25:34;108.78;;;45.55;;
23388;SDS011;11867;51.198;11.966;2024-01-11T03:26:56;101.30;;;43.95;;
23388;SDS011;11867;51.198;11.966;2024-01-11T03:28:19;100.00;;;43.95;;
23388;SDS011;11867;51.198;11.966;2024-01-11T03:29:42;102.72;;;44.78;;
23388;SDS011;11867;51.198;11.966;2024-01-11T03:31:04;97.07;;;44.45;;
23388;SDS011;11867;51.198;11.966;2024-01-11T03:32:28;100.97;;;44.58;;
23388;SDS011;11867;51.198;11.966;2024-01-11T03:33:51;101.90;;;44.67;;
23388;SDS011;11867;51.198;11.966;2024-01-11T03:35:15;102.70;;;43.58;;
23388;SDS011;11867;51.198;11.966;2024-01-11T03:36:37;101.00;;;44.35;;
23388;SDS011;11867;51.198;11.966;2024-01-11T03:38:01;98.45;;;43.72;;
23388;SDS011;11867;51.198;11.966;2024-01-11T03:39:23;102.57;;;43.88;;
23388;SDS011;11867;51.198;11.966;2024-01-11T03:40:48;97.88;;;44.63;;
23388;SDS011;11867;51.198;11.966;2024-01-11T03:42:10;99.82;;;42.10;;
23388;SDS011;11867;51.198;11.966;2024-01-11T03:43:33;98.57;;;43.53;;
23388;SDS011;11867;51.198;11.966;2024-01-11T03:44:55;98.07;;;43.88;;
23388;SDS011;11867;51.198;11.966;2024-01-11T03:46:19;101.20;;;43.67;;
23388;SDS011;11867;51.198;11.966;2024-01-11T03:47:42;98.65;;;44.00;;
23388;SDS011;11867;51.198;11.966;2024-01-11T03:49:07;96.35;;;44.03;;
23388;SDS011;11867;51.198;11.966;2024-01-11T03:50:29;95.50;;;42.40;;
23388;SDS011;11867;51.198;11.966;2024-01-11T03:51:52;97.68;;;43.42;;
23388;SDS011;11867;51.198;11.966;2024-01-11T03:53:14;95.13;;;42.10;;
23388;SDS011;11867;51.198;11.966;2024-01-11T03:54:37;101.47;;;44.70;;
23388;SDS011;11867;51.198;11.966;2024-01-11T03:56:01;89.78;;;40.28;;
23388;SDS011;11867;51.198;11.966;2024-01-11T03:57:24;97.60;;;43.47;;
23388;SDS011;11867;51.198;11.966;2024-01-11T03:58:46;101.50;;;43.13;;
23388;SDS011;11867;51.198;11.966;2024-01-11T04:00:09;93.57;;;42.15;;
23388;SDS011;11867;51.198;11.966;2024-01-11T04:01:32;105.72;;;46.40;;
23388;SDS011;11867;51.198;11.966;2024-01-11T04:02:56;104.43;;;44.90;;
23388;SDS011;11867;51.198;11.966;2024-01-11T04:04:18;107.22;;;44.20;;
23388;SDS011;11867;51.198;11.966;2024-01-11T04:05:41;101.38;;;45.22;;
23388;SDS011;11867;51.198;11.966;2024-01-11T04:07:03;96.55;;;42.28;;
23388;SDS011;11867;51.198;11.966;2024-01-11T04:08:27;101.45;;;43.65;;
23388;SDS011;11867;51.198;11.966;2024-01-11T04:09:49;99.78;;;44.65;;
23388;SDS011;11867;51.198;11.966;2024-01-11T04:11:13;98.95;;;43.47;;
23388;SDS011;11867;51.198;11.966;2024-01-11T04:12:36;102.57;;;44.38;;
23388;SDS011;11867;51.198;11.966;2024-01-11T04:13:59;98.97;;;43.83;;
23388;SDS011;11867;51.198;11.966;2024-01-11T04:15:21;106.88;;;44.05;;
23388;SDS011;11867;51.198;11.966;2024-01-11T04:16:44;106.10;;;46.28;;
23388;SDS011;11867;51.198;11.966;2024-01-11T04:18:06;99.03;;;44.75;;
23388;SDS011;11867;51.198;11.966;2024-01-11T04:19:29;93.03;;;43.97;;
23388;SDS011;11867;51.198;11.966;2024-01-11T04:20:51;97.72;;;43.97;;
23388;SDS011;11867;51.198;11.966;2024-01-11T04:22:14;104.18;;;44.83;;
23388;SDS011;11867;51.198;11.966;2024-01-11T04:23:36;101.68;;;45.45;;
23388;SDS011;11867;51.198;11.966;2024-01-11T04:25:00;103.20;;;46.28;;
23388;SDS011;11867;51.198;11.966;2024-01-11T04:26:23;100.85;;;45.67;;
23388;SDS011;11867;51.198;11.966;2024-01-11T04:27:46;96.32;;;44.13;;
23388;SDS011;11867;51.198;11.966;2024-01-11T04:29:08;102.05;;;45.95;;
23388;SDS011;11867;51.198;11.966;2024-01-11T04:30:31;108.65;;;46.78;;
23388;SDS011;11867;51.198;11.966;2024-01-11T04:31:54;103.60;;;45.35;;
23388;SDS011;11867;51.198;11.966;2024-01-11T04:33:17;108.45;;;46.85;;
23388;SDS011;11867;51.198;11.966;2024-01-11T04:34:39;100.53;;;44.90;;
23388;SDS011;11867;51.198;11.966;2024-01-11T04:36:03;103.82;;;45.03;;
23388;SDS011;11867;51.198;11.966;2024-01-11T04:37:25;105.88;;;45.22;;
23388;SDS011;11867;51.198;11.966;2024-01-11T04:38:48;95.75;;;44.75;;
23388;SDS011;11867;51.198;11.966;2024-01-11T04:40:10;100.22;;;44.80;;
23388;SDS011;11867;51.198;11.966;2024-01-11T04:41:35;99.88;;;46.38;;
23388;SDS011;11867;51.198;11.966;2024-01-11T04:42:57;95.47;;;44.17;;
23388;SDS011;11867;51.198;11.966;2024-01-11T04:44:20;101.07;;;45.35;;
23388;SDS011;11867;51.198;11.966;2024-01-11T04:45:43;96.03;;;44.63;;
23388;SDS011;11867;51.198;11.966;2024-01-11T04:47:06;105.90;;;45.83;;
23388;SDS011;11867;51.198;11.966;2024-01-11T04:48:30;106.60;;;44.53;;
23388;SDS011;11867;51.198;11.966;2024-01-11T04:49:53;99.32;;;45.25;;
23388;SDS011;11867;51.198;11.966;2024-01-11T04:51:16;100.68;;;46.90;;
23388;SDS011;11867;51.198;11.966;2024-01-11T04:52:40;97.20;;;45.15;;
23388;SDS011;11867;51.198;11.966;2024-01-11T04:54:02;104.35;;;47.08;;
23388;SDS011;11867;51.198;11.966;2024-01-11T04:55:25;99.90;;;45.33;;
23388;SDS011;11867;51.198;11.966;2024-01-11T04:56:48;104.25;;;46.28;;
23388;SDS011;11867;51.198;11.966;2024-01-11T04:58:12;98.20;;;45.05;;
23388;SDS011;11867;51.198;11.966;2024-01-11T04:59:34;97.82;;;46.00;;
23388;SDS011;11867;51.198;11.966;2024-01-11T05:00:57;105.55;;;45.65;;
23388;SDS011;11867;51.198;11.966;2024-01-11T05:02:20;104.75;;;46.30;;
23388;SDS011;11867;51.198;11.966;2024-01-11T05:03:43;95.72;;;44.03;;
23388;SDS011;11867;51.198;11.966;2024-01-11T05:05:06;103.95;;;46.08;;
23388;SDS011;11867;51.198;11.966;2024-01-11T05:06:30;96.13;;;44.17;;
23388;SDS011;11867;51.198;11.966;2024-01-11T05:07:52;101.85;;;44.85;;
23388;SDS011;11867;51.198;11.966;2024-01-11T05:09:15;97.20;;;44.92;;
23388;SDS011;11867;51.198;11.966;2024-01-11T05:10:37;100.32;;;44.85;;
23388;SDS011;11867;51.198;11.966;2024-01-11T05:12:01;97.70;;;44.38;;
23388;SDS011;11867;51.198;11.966;2024-01-11T05:13:23;91.65;;;43.53;;
23388;SDS011;11867;51.198;11.966;2024-01-11T05:14:47;94.70;;;44.08;;
23388;SDS011;11867;51.198;11.966;2024-01-11T05:16:15;95.28;;;44.55;;
23388;SDS011;11867;51.198;11.966;2024-01-11T05:17:42;98.93;;;44.65;;
23388;SDS011;11867;51.198;11.966;2024-01-11T05:19:05;103.13;;;45.15;;
23388;SDS011;11867;51.198;11.966;2024-01-11T05:20:28;95.28;;;45.00;;
23388;SDS011;11867;51.198;11.966;2024-01-11T05:22:01;95.95;;;44.63;;
23388;SDS011;11867;51.198;11.966;2024-01-11T05:23:32;106.75;;;45.38;;
23388;SDS011;11867;51.198;11.966;2024-01-11T05:24:54;98.05;;;43.03;;
23388;SDS011;11867;51.198;11.966;2024-01-11T05:26:18;99.10;;;46.13;;
23388;SDS011;11867;51.198;11.966;2024-01-11T05:27:42;97.32;;;43.95;;
23388;SDS011;11867;51.198;11.966;2024-01-11T05:29:05;103.10;;;45.85;;
23388;SDS011;11867;51.198;11.966;2024-01-11T05:30:27;96.20;;;44.05;;
23388;SDS011;11867;51.198;11.966;2024-01-11T05:31:51;100.50;;;45.47;;
23388;SDS011;11867;51.198;11.966;2024-01-11T05:33:15;96.10;;;42.80;;
23388;SDS011;11867;51.198;11.966;2024-01-11T05:34:37;98.53;;;43.28;;
23388;SDS011;11867;51.198;11.966;2024-01-11T05:36:00;96.80;;;42.38;;
23388;SDS011;11867;51.198;11.966;2024-01-11T05:37:22;98.38;;;43.50;;
23388;SDS011;11867;51.198;11.966;2024-01-11T05:38:45;93.13;;;42.05;;
23388;SDS011;11867;51.198;11.966;2024-01-11T05:40:08;99.00;;;45.08;;
23388;SDS011;11867;51.198;11.966;2024-01-11T05:41:31;100.53;;;44.45;;
23388;SDS011;11867;51.198;11.966;2024-01-11T05:42:54;108.45;;;44.67;;
23388;SDS011;11867;51.198;11.966;2024-01-11T05:44:17;106.07;;;45.00;;
23388;SDS011;11867;51.198;11.966;2024-01-11T05:45:39;98.05;;;43.13;;
23388;SDS011;11867;51.198;11.966;2024-01-11T05:47:09;105.32;;;45.58;;
23388;SDS011;11867;51.198;11.966;2024-01-11T05:48:31;99.82;;;44.97;;
23388;SDS011;11867;51.198;11.966;2024-01-11T05:49:54;105.38;;;44.90;;
23388;SDS011;11867;51.198;11.966;2024-01-11T05:51:17;104.40;;;43.65;;
23388;SDS011;11867;51.198;11.966;2024-01-11T05:52:40;96.80;;;45.08;;
23388;SDS011;11867;51.198;11.966;2024-01-11T05:54:02;92.70;;;42.83;;
23388;SDS011;11867;51.198;11.966;2024-01-11T05:55:25;105.03;;;45.28;;
23388;SDS011;11867;51.198;11.966;2024-01-11T05:56:47;103.22;;;44.50;;
23388;SDS011;11867;51.198;11.966;2024-01-11T05:58:12;99.57;;;43.33;;
23388;SDS011;11867;51.198;11.966;2024-01-11T05:59:34;100.55;;;46.72;;
23388;SDS011;11867;51.198;11.966;2024-01-11T06:00:57;100.32;;;46.45;;
23388;SDS011;11867;51.198;11.966;2024-01-11T06:02:19;110.30;;;47.00;;
23388;SDS011;11867;51.198;11.966;2024-01-11T06:03:44;102.93;;;47.83;;
23388;SDS011;11867;51.198;11.966;2024-01-11T06:05:07;105.45;;;47.45;;
23388;SDS011;11867;51.198;11.966;2024-01-11T06:06:31;96.60;;;44.22;;
23388;SDS011;11867;51.198;11.966;2024-01-11T06:07:53;95.95;;;42.20;;
23388;SDS011;11867;51.198;11.966;2024-01-11T06:09:16;106.72;;;45.83;;
23388;SDS011;11867;51.198;11.966;2024-01-11T06:10:38;99.78;;;44.58;;
23388;SDS011;11867;51.198;11.966;2024-01-11T06:12:02;99.30;;;45.67;;
23388;SDS011;11867;51.198;11.966;2024-01-11T06:13:25;95.55;;;44.83;;
23388;SDS011;11867;51.198;11.966;2024-01-11T06:14:49;98.03;;;44.55;;
23388;SDS011;11867;51.198;11.966;2024-01-11T06:16:11;102.00;;;44.75;;
23388;SDS011;11867;51.198;11.966;2024-01-11T06:17:34;98.07;;;43.75;;
23388;SDS011;11867;51.198;11.966;2024-01-11T06:18:57;98.47;;;44.45;;
23388;SDS011;11867;51.198;11.966;2024-01-11T06:20:20;93.03;;;43.90;;
23388;SDS011;11867;51.198;11.966;2024-01-11T06:21:42;95.85;;;44.70;;
23388;SDS011;11867;51.198;11.966;2024-01-11T06:23:05;100.90;;;44.40;;
23388;SDS011;11867;51.198;11.966;2024-01-11T06:24:28;96.07;;;43.45;;
23388;SDS011;11867;51.198;11.966;2024-01-11T06:25:59;95.93;;;44.40;;
23388;SDS011;11867;51.198;11.966;2024-01-11T06:27:21;97.88;;;45.60;;
23388;SDS011;11867;51.198;11.966;2024-01-11T06:28:45;96.85;;;44.08;;
23388;SDS011;11867;51.198;11.966;2024-01-11T06:30:07;97.95;;;45.40;;
23388;SDS011;11867;51.198;11.966;2024-01-11T06:31:31;105.57;;;44.63;;
23388;SDS011;11867;51.198;11.966;2024-01-11T06:32:53;94.45;;;43.47;;
23388;SDS011;11867;51.198;11.966;2024-01-11T06:34:16;98.40;;;44.22;;
23388;SDS011;11867;51.198;11.966;2024-01-11T06:35:38;105.50;;;44.20;;
23388;SDS011;11867;51.198;11.966;2024-01-11T06:37:04;99.68;;;45.00;;
23388;SDS011;11867;51.198;11.966;2024-01-11T06:38:26;100.60;;;45.70;;
23388;SDS011;11867;51.198;11.966;2024-01-11T06:39:49;106.45;;;46.25;;
23388;SDS011;11867;51.198;11.966;2024-01-11T06:41:11;106.07;;;46.47;;
23388;SDS011;11867;51.198;11.966;2024-01-11T06:42:34;105.65;;;45.75;;
23388;SDS011;11867;51.198;11.966;2024-01-11T06:43:57;106.28;;;45.67;;
23388;SDS011;11867;51.198;11.966;2024-01-11T06:45:22;105.75;;;46.60;;
23388;SDS011;11867;51.198;11.966;2024-01-11T06:46:44;100.05;;;44.72;;
23388;SDS011;11867;51.198;11.966;2024-01-11T06:48:07;97.25;;;45.33;;
23388;SDS011;11867;51.198;11.966;2024-01-11T06:49:30;97.07;;;44.58;;
23388;SDS011;11867;51.198;11.966;2024-01-11T06:50:53;98.22;;;45.03;;
23388;SDS011;11867;51.198;11.966;2024-01-11T06:52:15;102.05;;;45.33;;
23388;SDS011;11867;51.198;11.966;2024-01-11T06:53:38;101.25;;;45.53;;
23388;SDS011;11867;51.198;11.966;2024-01-11T06:55:01;104.95;;;46.88;;
23388;SDS011;11867;51.198;11.966;2024-01-11T06:56:24;99.80;;;44.83;;
23388;SDS011;11867;51.198;11.966;2024-01-11T06:57:46;106.13;;;46.55;;
23388;SDS011;11867;51.198;11.966;2024-01-11T06:59:10;110.40;;;47.67;;
23388;SDS011;11867;51.198;11.966;2024-01-11T07:00:36;103.53;;;47.50;;
23388;SDS011;11867;51.198;11.966;2024-01-11T07:01:59;99.88;;;44.92;;
23388;SDS011;11867;51.198;11.966;2024-01-11T07:03:21;92.57;;;44.20;;
23388;SDS011;11867;51.198;11.966;2024-01-11T07:04:44;105.88;;;47.22;;
23388;SDS011;11867;51.198;11.966;2024-01-11T07:06:06;104.88;;;45.75;;
23388;SDS011;11867;51.198;11.966;2024-01-11T07:07:30;108.60;;;46.05;;
23388;SDS011;11867;51.198;11.966;2024-01-11T07:08:52;103.03;;;46.22;;
23388;SDS011;11867;51.198;11.966;2024-01-11T07:10:15;101.07;;;46.97;;
23388;SDS011;11867;51.198;11.966;2024-01-11T07:11:40;112.47;;;48.00;;
23388;SDS011;11867;51.198;11.966;2024-01-11T07:13:03;103.75;;;44.65;;
23388;SDS011;11867;51.198;11.966;2024-01-11T07:14:26;108.65;;;47.20;;
23388;SDS011;11867;51.198;11.966;2024-01-11T07:15:51;106.78;;;46.50;;
23388;SDS011;11867;51.198;11.966;2024-01-11T07:17:14;101.93;;;45.22;;
23388;SDS011;11867;51.198;11.966;2024-01-11T07:18:37;105.10;;;45.47;;
23388;SDS011;11867;51.198;11.966;2024-01-11T07:19:59;108.47;;;45.90;;
23388;SDS011;11867;51.198;11.966;2024-01-11T07:21:22;109.85;;;45.40;;
23388;SDS011;11867;51.198;11.966;2024-01-11T07:22:51;98.35;;;45.10;;
23388;SDS011;11867;51.198;11.966;2024-01-11T07:24:14;107.97;;;44.92;;
23388;SDS011;11867;51.198;11.966;2024-01-11T07:25:37;102.57;;;45.58;;
23388;SDS011;11867;51.198;11.966;2024-01-11T07:27:00;106.95;;;47.15;;
23388;SDS011;11867;51.198;11.966;2024-01-11T07:28:22;107.40;;;46.28;;
23388;SDS011;11867;51.198;11.966;2024-01-11T07:29:48;105.05;;;47.03;;
23388;SDS011;11867;51.198;11.966;2024-01-11T07:31:10;107.25;;;47.22;;
23388;SDS011;11867;51.198;11.966;2024-01-11T07:32:33;105.10;;;46.55;;
23388;SDS011;11867;51.198;11.966;2024-01-11T07:33:55;107.90;;;46.20;;
23388;SDS011;11867;51.198;11.966;2024-01-11T07:35:18;99.63;;;45.20;;
23388;SDS011;11867;51.198;11.966;2024-01-11T07:36:40;110.65;;;49.53;;
23388;SDS011;11867;51.198;11.966;2024-01-11T07:38:03;104.03;;;48.92;;
23388;SDS011;11867;51.198;11.966;2024-01-11T07:39:25;105.90;;;48.25;;
23388;SDS011;11867;51.198;11.966;2024-01-11T07:40:48;103.28;;;47.78;;
23388;SDS011;11867;51.198;11.966;2024-01-11T07:42:10;100.20;;;47.55;;
23388;SDS011;11867;51.198;11.966;2024-01-11T07:43:34;106.38;;;46.45;;
23388;SDS011;11867;51.198;11.966;2024-01-11T07:45:15;105.85;;;48.60;;
23388;SDS011;11867;51.198;11.966;2024-01-11T07:46:38;103.28;;;46.72;;
23388;SDS011;11867;51.198;11.966;2024-01-11T07:48:13;108.63;;;46.08;;
23388;SDS011;11867;51.198;11.966;2024-01-11T07:49:36;110.97;;;47.45;;
23388;SDS011;11867;51.198;11.966;2024-01-11T07:50:58;102.70;;;47.78;;
23388;SDS011;11867;51.198;11.966;2024-01-11T07:52:21;100.75;;;46.58;;
23388;SDS011;11867;51.198;11.966;2024-01-11T07:53:43;103.10;;;46.28;;
23388;SDS011;11867;51.198;11.966;2024-01-11T07:55:07;110.97;;;48.55;;
23388;SDS011;11867;51.198;11.966;2024-01-11T07:56:32;102.82;;;48.33;;
23388;SDS011;11867;51.198;11.966;2024-01-11T07:57:56;103.88;;;48.47;;
23388;SDS011;11867;51.198;11.966;2024-01-11T07:59:18;98.20;;;46.55;;
23388;SDS011;11867;51.198;11.966;2024-01-11T08:00:43;107.32;;;47.45;;
23388;SDS011;11867;51.198;11.966;2024-01-11T08:02:05;98.45;;;46.58;;
23388;SDS011;11867;51.198;11.966;2024-01-11T08:03:29;97.20;;;46.30;;
23388;SDS011;11867;51.198;11.966;2024-01-11T08:04:51;105.65;;;47.47;;
23388;SDS011;11867;51.198;11.966;2024-01-11T08:06:14;107.10;;;47.83;;